sensor_id;sensor_type;location;lat;lon;timestamp;P1;durP1;ratioP1;P2;durP2;ratioP2
66212;SDS011;53015;50.046;8.238;2023-08-20T00:01:01;5.63;;;4.05;;
66212;SDS011;53015;50.046;8.238;2023-08-20T00:03:27;11.35;;;4.80;;
66212;SDS011;53015;50.046;8.238;2023-08-20T00:05:53;6.05;;;4.30;;
66212;SDS011;53015;50.046;8.238;2023-08-20T00:08:19;6.30;;;4.15;;
66212;SDS011;53015;50.046;8.238;2023-08-20T00:10:46;9.05;;;5.03;;
66212;SDS011;53015;50.046;8.238;2023-08-20T00:13:12;6.47;;;4.28;;
66212;SDS011;53015;50.046;8.238;2023-08-20T00:15:37;5.57;;;3.90;;
66212;SDS011;53015;50.046;8.238;2023-08-20T00:18:03;8.10;;;4.50;;
66212;SDS011;53015;50.046;8.238;2023-08-20T00:20:30;8.60;;;3.80;;
66212;SDS011;53015;50.046;8.238;2023-08-20T00:22:56;5.45;;;4.05;;
66212;SDS011;53015;50.046;8.238;2023-08-20T00:25:22;7.85;;;3.72;;
66212;SDS011;53015;50.046;8.238;2023-08-20T00:27:49;7.57;;;3.85;;
66212;SDS011;53015;50.046;8.238;2023-08-20T00:30:14;8.48;;;3.70;;
66212;SDS011;53015;50.046;8.238;2023-08-20T00:32:40;6.97;;;3.80;;
66212;SDS011;53015;50.046;8.238;2023-08-20T00:35:06;5.90;;;3.70;;
66212;SDS011;53015;50.046;8.238;2023-08-20T00:37:32;7.55;;;3.72;;
66212;SDS011;53015;50.046;8.238;2023-08-20T00:39:57;4.90;;;3.70;;
66212;SDS011;53015;50.046;8.238;2023-08-20T00:42:23;5.50;;;3.83;;
66212;SDS011;53015;50.046;8.238;2023-08-20T00:44:50;5.45;;;3.67;;
66212;SDS011;53015;50.046;8.238;2023-08-20T00:47:16;6.78;;;3.70;;
66212;SDS011;53015;50.046;8.238;2023-08-20T00:49:43;6.32;;;3.80;;
66212;SDS011;53015;50.046;8.238;2023-08-20T00:52:08;4.85;;;3.50;;
66212;SDS011;53015;50.046;8.238;2023-08-20T00:54:35;10.05;;;3.83;;
66212;SDS011;53015;50.046;8.238;2023-08-20T00:57:03;6.68;;;3.83;;
66212;SDS011;53015;50.046;8.238;2023-08-20T00:59:29;6.35;;;4.10;;
66212;SDS011;53015;50.046;8.238;2023-08-20T01:01:58;9.18;;;4.22;;
66212;SDS011;53015;50.046;8.238;2023-08-20T01:04:24;7.53;;;3.95;;
66212;SDS011;53015;50.046;8.238;2023-08-20T01:06:51;7.55;;;3.97;;
66212;SDS011;53015;50.046;8.238;2023-08-20T01:09:24;7.10;;;4.30;;
66212;SDS011;53015;50.046;8.238;2023-08-20T01:11:57;8.15;;;4.50;;
66212;SDS011;53015;50.046;8.238;2023-08-20T01:14:24;6.35;;;4.07;;
66212;SDS011;53015;50.046;8.238;2023-08-20T01:16:50;6.72;;;4.32;;
66212;SDS011;53015;50.046;8.238;2023-08-20T01:19:18;7.10;;;4.18;;
66212;SDS011;53015;50.046;8.238;2023-08-20T01:21:47;6.15;;;3.95;;
66212;SDS011;53015;50.046;8.238;2023-08-20T01:24:30;7.25;;;4.25;;
66212;SDS011;53015;50.046;8.238;2023-08-20T01:27:19;6.75;;;4.10;;
66212;SDS011;53015;50.046;8.238;2023-08-20T01:29:53;8.30;;;4.13;;
66212;SDS011;53015;50.046;8.238;2023-08-20T01:32:19;8.90;;;4.03;;
66212;SDS011;53015;50.046;8.238;2023-08-20T01:34:46;7.38;;;4.15;;
66212;SDS011;53015;50.046;8.238;2023-08-20T01:37:11;5.47;;;4.03;;
66212;SDS011;53015;50.046;8.238;2023-08-20T01:39:37;5.70;;;3.83;;
66212;SDS011;53015;50.046;8.238;2023-08-20T01:42:02;10.80;;;4.43;;
66212;SDS011;53015;50.046;8.238;2023-08-20T01:44:28;8.25;;;3.75;;
66212;SDS011;53015;50.046;8.238;2023-08-20T01:46:55;5.97;;;3.95;;
66212;SDS011;53015;50.046;8.238;2023-08-20T01:49:20;7.82;;;4.00;;
66212;SDS011;53015;50.046;8.238;2023-08-20T01:51:46;6.53;;;3.72;;
66212;SDS011;53015;50.046;8.238;2023-08-20T01:54:11;7.03;;;3.53;;
66212;SDS011;53015;50.046;8.238;2023-08-20T01:56:37;5.25;;;3.85;;
66212;SDS011;53015;50.046;8.238;2023-08-20T01:59:02;7.82;;;4.40;;
66212;SDS011;53015;50.046;8.238;2023-08-20T02:01:28;5.47;;;3.72;;
66212;SDS011;53015;50.046;8.238;2023-08-20T02:03:55;5.13;;;3.45;;
66212;SDS011;53015;50.046;8.238;2023-08-20T02:06:21;6.60;;;4.20;;
66212;SDS011;53015;50.046;8.238;2023-08-20T02:08:46;6.32;;;4.18;;
66212;SDS011;53015;50.046;8.238;2023-08-20T02:11:12;7.53;;;4.10;;
66212;SDS011;53015;50.046;8.238;2023-08-20T02:13:37;8.82;;;3.83;;
66212;SDS011;53015;50.046;8.238;2023-08-20T02:16:03;5.03;;;3.53;;
66212;SDS011;53015;50.046;8.238;2023-08-20T02:18:30;8.20;;;3.72;;
66212;SDS011;53015;50.046;8.238;2023-08-20T02:20:57;7.68;;;3.60;;
66212;SDS011;53015;50.046;8.238;2023-08-20T02:23:23;5.63;;;3.58;;
66212;SDS011;53015;50.046;8.238;2023-08-20T02:25:48;7.78;;;3.55;;
66212;SDS011;53015;50.046;8.238;2023-08-20T02:28:14;7.93;;;4.47;;
66212;SDS011;53015;50.046;8.238;2023-08-20T02:30:40;3.75;;;3.17;;
66212;SDS011;53015;50.046;8.238;2023-08-20T02:33:06;5.80;;;3.30;;
66212;SDS011;53015;50.046;8.238;2023-08-20T02:35:32;10.95;;;3.60;;
66212;SDS011;53015;50.046;8.238;2023-08-20T02:37:58;7.03;;;3.58;;
66212;SDS011;53015;50.046;8.238;2023-08-20T02:40:24;3.60;;;3.25;;
66212;SDS011;53015;50.046;8.238;2023-08-20T02:42:49;5.53;;;3.55;;
66212;SDS011;53015;50.046;8.238;2023-08-20T02:45:15;7.68;;;3.30;;
66212;SDS011;53015;50.046;8.238;2023-08-20T02:47:40;7.35;;;3.60;;
66212;SDS011;53015;50.046;8.238;2023-08-20T02:50:06;8.20;;;3.75;;
66212;SDS011;53015;50.046;8.238;2023-08-20T02:52:32;6.78;;;3.67;;
66212;SDS011;53015;50.046;8.238;2023-08-20T02:54:59;5.60;;;3.40;;
66212;SDS011;53015;50.046;8.238;2023-08-20T02:57:24;5.97;;;3.30;;
66212;SDS011;53015;50.046;8.238;2023-08-20T02:59:50;7.18;;;3.60;;
66212;SDS011;53015;50.046;8.238;2023-08-20T03:02:15;6.38;;;3.65;;
66212;SDS011;53015;50.046;8.238;2023-08-20T03:04:41;4.90;;;3.30;;
66212;SDS011;53015;50.046;8.238;2023-08-20T03:07:06;8.57;;;3.72;;
66212;SDS011;53015;50.046;8.238;2023-08-20T03:09:32;7.00;;;3.80;;
66212;SDS011;53015;50.046;8.238;2023-08-20T03:11:59;5.35;;;3.15;;
66212;SDS011;53015;50.046;8.238;2023-08-20T03:14:24;6.93;;;3.80;;
66212;SDS011;53015;50.046;8.238;2023-08-20T03:16:50;7.32;;;3.40;;
66212;SDS011;53015;50.046;8.238;2023-08-20T03:19:15;7.82;;;3.35;;
66212;SDS011;53015;50.046;8.238;2023-08-20T03:21:42;7.30;;;3.55;;
66212;SDS011;53015;50.046;8.238;2023-08-20T03:24:08;5.28;;;3.58;;
66212;SDS011;53015;50.046;8.238;2023-08-20T03:26:34;6.20;;;3.70;;
66212;SDS011;53015;50.046;8.238;2023-08-20T03:29:00;5.72;;;3.35;;
66212;SDS011;53015;50.046;8.238;2023-08-20T03:31:26;9.25;;;3.70;;
66212;SDS011;53015;50.046;8.238;2023-08-20T03:33:51;5.10;;;3.25;;
66212;SDS011;53015;50.046;8.238;2023-08-20T03:36:17;4.82;;;3.35;;
66212;SDS011;53015;50.046;8.238;2023-08-20T03:38:42;13.60;;;3.35;;
66212;SDS011;53015;50.046;8.238;2023-08-20T03:41:08;6.93;;;3.50;;
66212;SDS011;53015;50.046;8.238;2023-08-20T03:43:33;6.18;;;3.58;;
66212;SDS011;53015;50.046;8.238;2023-08-20T03:46:00;7.47;;;4.03;;
66212;SDS011;53015;50.046;8.238;2023-08-20T03:48:26;5.70;;;3.45;;
66212;SDS011;53015;50.046;8.238;2023-08-20T03:50:51;6.95;;;3.78;;
66212;SDS011;53015;50.046;8.238;2023-08-20T03:53:17;5.88;;;3.40;;
66212;SDS011;53015;50.046;8.238;2023-08-20T03:55:47;7.10;;;3.45;;
66212;SDS011;53015;50.046;8.238;2023-08-20T03:58:12;6.78;;;3.58;;
66212;SDS011;53015;50.046;8.238;2023-08-20T04:00:38;9.65;;;3.65;;
66212;SDS011;53015;50.046;8.238;2023-08-20T04:03:05;6.22;;;3.35;;
66212;SDS011;53015;50.046;8.238;2023-08-20T04:05:35;8.32;;;3.55;;
66212;SDS011;53015;50.046;8.238;2023-08-20T04:08:01;5.47;;;3.45;;
66212;SDS011;53015;50.046;8.238;2023-08-20T04:10:26;5.53;;;3.47;;
66212;SDS011;53015;50.046;8.238;2023-08-20T04:12:52;4.43;;;3.35;;
66212;SDS011;53015;50.046;8.238;2023-08-20T04:15:17;4.95;;;3.38;;
66212;SDS011;53015;50.046;8.238;2023-08-20T04:17:43;5.80;;;3.63;;
66212;SDS011;53015;50.046;8.238;2023-08-20T04:20:10;7.35;;;4.18;;
66212;SDS011;53015;50.046;8.238;2023-08-20T04:22:35;5.00;;;3.70;;
66212;SDS011;53015;50.046;8.238;2023-08-20T04:25:01;5.95;;;4.22;;
66212;SDS011;53015;50.046;8.238;2023-08-20T04:27:26;4.55;;;3.45;;
66212;SDS011;53015;50.046;8.238;2023-08-20T04:29:52;7.93;;;3.33;;
66212;SDS011;53015;50.046;8.238;2023-08-20T04:32:17;4.53;;;3.58;;
66212;SDS011;53015;50.046;8.238;2023-08-20T04:34:43;5.15;;;3.58;;
66212;SDS011;53015;50.046;8.238;2023-08-20T04:37:10;4.50;;;3.60;;
66212;SDS011;53015;50.046;8.238;2023-08-20T04:39:35;4.28;;;3.13;;
66212;SDS011;53015;50.046;8.238;2023-08-20T04:42:01;6.05;;;3.72;;
66212;SDS011;53015;50.046;8.238;2023-08-20T04:44:26;7.70;;;3.35;;
66212;SDS011;53015;50.046;8.238;2023-08-20T04:46:52;7.97;;;4.05;;
66212;SDS011;53015;50.046;8.238;2023-08-20T04:49:17;5.38;;;3.53;;
66212;SDS011;53015;50.046;8.238;2023-08-20T04:51:43;7.05;;;3.50;;
66212;SDS011;53015;50.046;8.238;2023-08-20T04:54:09;7.68;;;3.63;;
66212;SDS011;53015;50.046;8.238;2023-08-20T04:56:35;10.40;;;3.90;;
66212;SDS011;53015;50.046;8.238;2023-08-20T04:59:00;7.53;;;3.80;;
66212;SDS011;53015;50.046;8.238;2023-08-20T05:01:26;4.80;;;3.13;;
66212;SDS011;53015;50.046;8.238;2023-08-20T05:03:51;6.18;;;3.55;;
66212;SDS011;53015;50.046;8.238;2023-08-20T05:06:17;5.70;;;3.80;;
66212;SDS011;53015;50.046;8.238;2023-08-20T05:08:42;4.72;;;3.40;;
66212;SDS011;53015;50.046;8.238;2023-08-20T05:11:09;7.80;;;3.78;;
66212;SDS011;53015;50.046;8.238;2023-08-20T05:13:35;9.32;;;3.60;;
66212;SDS011;53015;50.046;8.238;2023-08-20T05:16:00;5.70;;;3.55;;
66212;SDS011;53015;50.046;8.238;2023-08-20T05:18:25;6.53;;;3.70;;
66212;SDS011;53015;50.046;8.238;2023-08-20T05:20:51;4.82;;;3.80;;
66212;SDS011;53015;50.046;8.238;2023-08-20T05:23:16;4.47;;;3.63;;
66212;SDS011;53015;50.046;8.238;2023-08-20T05:25:42;7.22;;;3.95;;
66212;SDS011;53015;50.046;8.238;2023-08-20T05:28:09;6.15;;;3.67;;
66212;SDS011;53015;50.046;8.238;2023-08-20T05:30:34;6.97;;;3.90;;
66212;SDS011;53015;50.046;8.238;2023-08-20T05:33:00;5.13;;;3.85;;
66212;SDS011;53015;50.046;8.238;2023-08-20T05:35:25;5.07;;;3.90;;
66212;SDS011;53015;50.046;8.238;2023-08-20T05:37:51;7.18;;;4.10;;
66212;SDS011;53015;50.046;8.238;2023-08-20T05:40:16;5.47;;;4.00;;
66212;SDS011;53015;50.046;8.238;2023-08-20T05:42:42;13.30;;;4.35;;
66212;SDS011;53015;50.046;8.238;2023-08-20T05:45:09;9.02;;;4.30;;
66212;SDS011;53015;50.046;8.238;2023-08-20T05:47:35;6.80;;;4.38;;
66212;SDS011;53015;50.046;8.238;2023-08-20T05:50:00;6.88;;;4.30;;
66212;SDS011;53015;50.046;8.238;2023-08-20T05:52:26;6.25;;;3.65;;
66212;SDS011;53015;50.046;8.238;2023-08-20T05:54:51;6.72;;;4.15;;
66212;SDS011;53015;50.046;8.238;2023-08-20T05:57:16;7.72;;;4.03;;
66212;SDS011;53015;50.046;8.238;2023-08-20T05:59:42;7.30;;;4.13;;
66212;SDS011;53015;50.046;8.238;2023-08-20T06:02:09;7.00;;;4.35;;
66212;SDS011;53015;50.046;8.238;2023-08-20T06:04:35;7.85;;;4.32;;
66212;SDS011;53015;50.046;8.238;2023-08-20T06:07:00;7.43;;;4.63;;
66212;SDS011;53015;50.046;8.238;2023-08-20T06:09:26;9.23;;;4.50;;
66212;SDS011;53015;50.046;8.238;2023-08-20T06:11:51;6.43;;;4.32;;
66212;SDS011;53015;50.046;8.238;2023-08-20T06:14:17;7.47;;;4.40;;
66212;SDS011;53015;50.046;8.238;2023-08-20T06:16:42;9.05;;;4.60;;
66212;SDS011;53015;50.046;8.238;2023-08-20T06:19:09;11.07;;;4.15;;
66212;SDS011;53015;50.046;8.238;2023-08-20T06:21:34;14.27;;;5.03;;
66212;SDS011;53015;50.046;8.238;2023-08-20T06:24:00;8.38;;;4.60;;
66212;SDS011;53015;50.046;8.238;2023-08-20T06:26:26;7.15;;;4.78;;
66212;SDS011;53015;50.046;8.238;2023-08-20T06:28:51;7.35;;;4.72;;
66212;SDS011;53015;50.046;8.238;2023-08-20T06:31:17;8.38;;;4.85;;
66212;SDS011;53015;50.046;8.238;2023-08-20T06:33:42;6.53;;;4.50;;
66212;SDS011;53015;50.046;8.238;2023-08-20T06:36:09;7.95;;;4.60;;
66212;SDS011;53015;50.046;8.238;2023-08-20T06:38:35;9.13;;;4.68;;
66212;SDS011;53015;50.046;8.238;2023-08-20T06:41:00;8.77;;;4.53;;
66212;SDS011;53015;50.046;8.238;2023-08-20T06:43:25;7.38;;;4.43;;
66212;SDS011;53015;50.046;8.238;2023-08-20T06:45:51;5.90;;;4.03;;
66212;SDS011;53015;50.046;8.238;2023-08-20T06:48:16;6.82;;;4.30;;
66212;SDS011;53015;50.046;8.238;2023-08-20T06:50:42;6.85;;;4.10;;
66212;SDS011;53015;50.046;8.238;2023-08-20T06:53:09;5.63;;;3.67;;
66212;SDS011;53015;50.046;8.238;2023-08-20T06:55:34;6.80;;;4.90;;
66212;SDS011;53015;50.046;8.238;2023-08-20T06:58:00;6.90;;;4.32;;
66212;SDS011;53015;50.046;8.238;2023-08-20T07:00:25;5.90;;;4.18;;
66212;SDS011;53015;50.046;8.238;2023-08-20T07:02:51;7.78;;;4.65;;
66212;SDS011;53015;50.046;8.238;2023-08-20T07:05:16;6.32;;;4.45;;
66212;SDS011;53015;50.046;8.238;2023-08-20T07:07:42;8.23;;;4.07;;
66212;SDS011;53015;50.046;8.238;2023-08-20T07:10:09;10.15;;;4.55;;
66212;SDS011;53015;50.046;8.238;2023-08-20T07:12:34;8.95;;;4.80;;
66212;SDS011;53015;50.046;8.238;2023-08-20T07:15:00;6.18;;;4.22;;
66212;SDS011;53015;50.046;8.238;2023-08-20T07:17:25;6.57;;;4.43;;
66212;SDS011;53015;50.046;8.238;2023-08-20T07:19:51;7.72;;;4.90;;
66212;SDS011;53015;50.046;8.238;2023-08-20T07:22:16;6.00;;;4.32;;
66212;SDS011;53015;50.046;8.238;2023-08-20T07:24:42;7.72;;;4.38;;
66212;SDS011;53015;50.046;8.238;2023-08-20T07:27:09;10.02;;;4.95;;
66212;SDS011;53015;50.046;8.238;2023-08-20T07:29:34;8.18;;;4.60;;
66212;SDS011;53015;50.046;8.238;2023-08-20T07:31:59;5.60;;;4.50;;
66212;SDS011;53015;50.046;8.238;2023-08-20T07:34:25;7.55;;;4.18;;
66212;SDS011;53015;50.046;8.238;2023-08-20T07:36:50;9.27;;;4.40;;
66212;SDS011;53015;50.046;8.238;2023-08-20T07:39:16;5.97;;;4.10;;
66212;SDS011;53015;50.046;8.238;2023-08-20T07:41:41;8.55;;;4.32;;
66212;SDS011;53015;50.046;8.238;2023-08-20T07:44:08;6.85;;;4.38;;
66212;SDS011;53015;50.046;8.238;2023-08-20T07:46:34;8.60;;;4.47;;
66212;SDS011;53015;50.046;8.238;2023-08-20T07:48:59;7.43;;;4.57;;
66212;SDS011;53015;50.046;8.238;2023-08-20T07:51:25;5.32;;;4.22;;
66212;SDS011;53015;50.046;8.238;2023-08-20T07:53:50;8.45;;;4.28;;
66212;SDS011;53015;50.046;8.238;2023-08-20T07:56:16;7.10;;;4.43;;
66212;SDS011;53015;50.046;8.238;2023-08-20T07:58:41;6.38;;;4.47;;
66212;SDS011;53015;50.046;8.238;2023-08-20T08:01:08;5.75;;;4.47;;
66212;SDS011;53015;50.046;8.238;2023-08-20T08:03:34;8.07;;;4.40;;
66212;SDS011;53015;50.046;8.238;2023-08-20T08:05:59;4.93;;;3.92;;
66212;SDS011;53015;50.046;8.238;2023-08-20T08:08:25;9.95;;;4.13;;
66212;SDS011;53015;50.046;8.238;2023-08-20T08:10:50;13.23;;;5.38;;
66212;SDS011;53015;50.046;8.238;2023-08-20T08:13:18;9.43;;;4.35;;
66212;SDS011;53015;50.046;8.238;2023-08-20T08:15:44;5.70;;;4.05;;
66212;SDS011;53015;50.046;8.238;2023-08-20T08:18:11;8.52;;;4.85;;
66212;SDS011;53015;50.046;8.238;2023-08-20T08:20:37;6.63;;;4.50;;
66212;SDS011;53015;50.046;8.238;2023-08-20T08:23:02;4.85;;;4.10;;
66212;SDS011;53015;50.046;8.238;2023-08-20T08:25:28;7.82;;;4.22;;
66212;SDS011;53015;50.046;8.238;2023-08-20T08:27:54;4.43;;;3.95;;
66212;SDS011;53015;50.046;8.238;2023-08-20T08:30:19;5.53;;;4.00;;
66212;SDS011;53015;50.046;8.238;2023-08-20T08:32:45;6.63;;;3.95;;
66212;SDS011;53015;50.046;8.238;2023-08-20T08:35:12;7.15;;;4.45;;
66212;SDS011;53015;50.046;8.238;2023-08-20T08:37:37;6.63;;;4.50;;
66212;SDS011;53015;50.046;8.238;2023-08-20T08:40:03;6.50;;;4.00;;
66212;SDS011;53015;50.046;8.238;2023-08-20T08:42:29;4.40;;;4.00;;
66212;SDS011;53015;50.046;8.238;2023-08-20T08:44:55;4.65;;;4.00;;
66212;SDS011;53015;50.046;8.238;2023-08-20T08:47:22;5.72;;;4.13;;
66212;SDS011;53015;50.046;8.238;2023-08-20T08:49:48;6.90;;;3.85;;
66212;SDS011;53015;50.046;8.238;2023-08-20T08:52:16;7.75;;;4.57;;
66212;SDS011;53015;50.046;8.238;2023-08-20T08:54:43;5.30;;;4.05;;
66212;SDS011;53015;50.046;8.238;2023-08-20T08:57:08;6.53;;;3.90;;
66212;SDS011;53015;50.046;8.238;2023-08-20T08:59:34;6.10;;;3.70;;
66212;SDS011;53015;50.046;8.238;2023-08-20T09:01:59;6.55;;;3.65;;
66212;SDS011;53015;50.046;8.238;2023-08-20T09:04:25;5.95;;;3.97;;
66212;SDS011;53015;50.046;8.238;2023-08-20T09:06:51;4.72;;;3.75;;
66212;SDS011;53015;50.046;8.238;2023-08-20T09:09:19;4.80;;;3.90;;
66212;SDS011;53015;50.046;8.238;2023-08-20T09:11:46;8.23;;;4.38;;
66212;SDS011;53015;50.046;8.238;2023-08-20T09:14:20;5.07;;;3.80;;
66212;SDS011;53015;50.046;8.238;2023-08-20T09:16:46;7.10;;;4.13;;
66212;SDS011;53015;50.046;8.238;2023-08-20T09:19:11;7.38;;;4.43;;
66212;SDS011;53015;50.046;8.238;2023-08-20T09:21:37;8.18;;;4.30;;
66212;SDS011;53015;50.046;8.238;2023-08-20T09:24:03;7.45;;;4.15;;
66212;SDS011;53015;50.046;8.238;2023-08-20T09:26:30;7.22;;;3.85;;
66212;SDS011;53015;50.046;8.238;2023-08-20T09:28:55;6.05;;;3.78;;
66212;SDS011;53015;50.046;8.238;2023-08-20T09:31:21;7.18;;;4.00;;
66212;SDS011;53015;50.046;8.238;2023-08-20T09:34:01;4.78;;;3.95;;
66212;SDS011;53015;50.046;8.238;2023-08-20T09:36:29;5.97;;;3.70;;
66212;SDS011;53015;50.046;8.238;2023-08-20T09:38:56;4.20;;;3.60;;
66212;SDS011;53015;50.046;8.238;2023-08-20T09:41:21;5.32;;;4.10;;
66212;SDS011;53015;50.046;8.238;2023-08-20T09:43:50;7.03;;;4.13;;
66212;SDS011;53015;50.046;8.238;2023-08-20T09:46:21;5.85;;;3.20;;
66212;SDS011;53015;50.046;8.238;2023-08-20T09:48:49;5.05;;;3.78;;
66212;SDS011;53015;50.046;8.238;2023-08-20T09:51:16;8.43;;;3.70;;
66212;SDS011;53015;50.046;8.238;2023-08-20T09:53:48;5.95;;;3.63;;
66212;SDS011;53015;50.046;8.238;2023-08-20T09:56:20;4.93;;;3.42;;
66212;SDS011;53015;50.046;8.238;2023-08-20T09:58:50;4.97;;;3.70;;
66212;SDS011;53015;50.046;8.238;2023-08-20T10:01:16;9.07;;;3.60;;
66212;SDS011;53015;50.046;8.238;2023-08-20T10:03:42;4.30;;;3.38;;
66212;SDS011;53015;50.046;8.238;2023-08-20T10:06:08;4.50;;;3.88;;
66212;SDS011;53015;50.046;8.238;2023-08-20T10:08:34;6.32;;;3.72;;
66212;SDS011;53015;50.046;8.238;2023-08-20T10:11:01;4.15;;;3.50;;
66212;SDS011;53015;50.046;8.238;2023-08-20T10:13:26;4.78;;;3.40;;
66212;SDS011;53015;50.046;8.238;2023-08-20T10:15:54;5.63;;;3.40;;
66212;SDS011;53015;50.046;8.238;2023-08-20T10:18:20;4.65;;;3.30;;
66212;SDS011;53015;50.046;8.238;2023-08-20T10:20:46;3.92;;;3.58;;
66212;SDS011;53015;50.046;8.238;2023-08-20T10:23:12;4.88;;;2.95;;
66212;SDS011;53015;50.046;8.238;2023-08-20T10:25:40;5.50;;;3.30;;
66212;SDS011;53015;50.046;8.238;2023-08-20T10:28:19;4.05;;;3.22;;
66212;SDS011;53015;50.046;8.238;2023-08-20T10:31:09;5.32;;;3.33;;
66212;SDS011;53015;50.046;8.238;2023-08-20T10:33:36;6.65;;;3.22;;
66212;SDS011;53015;50.046;8.238;2023-08-20T10:36:09;4.40;;;2.88;;
66212;SDS011;53015;50.046;8.238;2023-08-20T10:38:39;5.45;;;3.08;;
66212;SDS011;53015;50.046;8.238;2023-08-20T10:41:06;4.82;;;3.20;;
66212;SDS011;53015;50.046;8.238;2023-08-20T10:43:32;6.80;;;3.28;;
66212;SDS011;53015;50.046;8.238;2023-08-20T10:46:14;5.43;;;3.53;;
66212;SDS011;53015;50.046;8.238;2023-08-20T10:48:40;4.13;;;3.50;;
66212;SDS011;53015;50.046;8.238;2023-08-20T10:51:06;6.30;;;3.10;;
66212;SDS011;53015;50.046;8.238;2023-08-20T10:53:36;5.40;;;3.28;;
66212;SDS011;53015;50.046;8.238;2023-08-20T10:56:08;6.03;;;3.65;;
66212;SDS011;53015;50.046;8.238;2023-08-20T10:58:37;5.40;;;3.30;;
66212;SDS011;53015;50.046;8.238;2023-08-20T11:01:21;5.68;;;3.30;;
66212;SDS011;53015;50.046;8.238;2023-08-20T11:03:47;7.15;;;3.53;;
66212;SDS011;53015;50.046;8.238;2023-08-20T11:06:14;3.95;;;3.10;;
66212;SDS011;53015;50.046;8.238;2023-08-20T11:08:39;6.25;;;3.92;;
66212;SDS011;53015;50.046;8.238;2023-08-20T11:11:06;6.25;;;3.13;;
66212;SDS011;53015;50.046;8.238;2023-08-20T11:13:32;3.90;;;3.17;;
66212;SDS011;53015;50.046;8.238;2023-08-20T11:16:01;4.70;;;3.17;;
66212;SDS011;53015;50.046;8.238;2023-08-20T11:18:29;6.07;;;3.05;;
66212;SDS011;53015;50.046;8.238;2023-08-20T11:20:55;9.20;;;3.08;;
66212;SDS011;53015;50.046;8.238;2023-08-20T11:23:21;3.25;;;2.78;;
66212;SDS011;53015;50.046;8.238;2023-08-20T11:25:47;5.68;;;3.65;;
66212;SDS011;53015;50.046;8.238;2023-08-20T11:28:12;6.35;;;3.85;;
66212;SDS011;53015;50.046;8.238;2023-08-20T11:30:38;3.80;;;3.00;;
66212;SDS011;53015;50.046;8.238;2023-08-20T11:33:03;6.75;;;3.10;;
66212;SDS011;53015;50.046;8.238;2023-08-20T11:35:31;3.20;;;2.90;;
66212;SDS011;53015;50.046;8.238;2023-08-20T11:37:57;8.93;;;2.60;;
66212;SDS011;53015;50.046;8.238;2023-08-20T11:40:23;5.70;;;3.10;;
66212;SDS011;53015;50.046;8.238;2023-08-20T11:42:49;4.90;;;3.08;;
66212;SDS011;53015;50.046;8.238;2023-08-20T11:45:14;6.00;;;2.92;;
66212;SDS011;53015;50.046;8.238;2023-08-20T11:47:40;5.05;;;3.20;;
66212;SDS011;53015;50.046;8.238;2023-08-20T11:50:06;4.68;;;3.03;;
66212;SDS011;53015;50.046;8.238;2023-08-20T11:52:34;4.57;;;3.30;;
66212;SDS011;53015;50.046;8.238;2023-08-20T11:55:01;4.20;;;3.00;;
66212;SDS011;53015;50.046;8.238;2023-08-20T11:57:27;5.40;;;3.00;;
66212;SDS011;53015;50.046;8.238;2023-08-20T11:59:53;3.55;;;2.85;;
66212;SDS011;53015;50.046;8.238;2023-08-20T12:02:24;3.63;;;2.90;;
66212;SDS011;53015;50.046;8.238;2023-08-20T12:04:50;4.55;;;2.90;;
66212;SDS011;53015;50.046;8.238;2023-08-20T12:07:15;5.03;;;2.88;;
66212;SDS011;53015;50.046;8.238;2023-08-20T12:09:42;4.60;;;2.60;;
66212;SDS011;53015;50.046;8.238;2023-08-20T12:12:08;4.40;;;2.53;;
66212;SDS011;53015;50.046;8.238;2023-08-20T12:14:34;4.03;;;2.63;;
66212;SDS011;53015;50.046;8.238;2023-08-20T12:17:00;4.70;;;2.80;;
66212;SDS011;53015;50.046;8.238;2023-08-20T12:19:25;5.43;;;3.10;;
66212;SDS011;53015;50.046;8.238;2023-08-20T12:21:51;8.73;;;3.60;;
66212;SDS011;53015;50.046;8.238;2023-08-20T12:24:17;5.40;;;2.80;;
66212;SDS011;53015;50.046;8.238;2023-08-20T12:26:44;4.00;;;2.70;;
66212;SDS011;53015;50.046;8.238;2023-08-20T12:29:10;4.38;;;3.10;;
66212;SDS011;53015;50.046;8.238;2023-08-20T12:31:35;5.68;;;2.97;;
66212;SDS011;53015;50.046;8.238;2023-08-20T12:34:01;6.95;;;3.38;;
66212;SDS011;53015;50.046;8.238;2023-08-20T12:36:27;5.63;;;2.88;;
66212;SDS011;53015;50.046;8.238;2023-08-20T12:38:54;3.20;;;2.75;;
66212;SDS011;53015;50.046;8.238;2023-08-20T12:41:20;4.75;;;2.67;;
66212;SDS011;53015;50.046;8.238;2023-08-20T12:43:47;6.55;;;3.08;;
66212;SDS011;53015;50.046;8.238;2023-08-20T12:46:12;7.03;;;2.88;;
66212;SDS011;53015;50.046;8.238;2023-08-20T12:48:38;5.20;;;2.60;;
66212;SDS011;53015;50.046;8.238;2023-08-20T12:51:03;4.80;;;3.05;;
66212;SDS011;53015;50.046;8.238;2023-08-20T12:53:30;4.65;;;2.95;;
66212;SDS011;53015;50.046;8.238;2023-08-20T12:55:56;4.28;;;2.95;;
66212;SDS011;53015;50.046;8.238;2023-08-20T12:58:22;10.45;;;3.00;;
66212;SDS011;53015;50.046;8.238;2023-08-20T13:00:49;4.40;;;2.58;;
66212;SDS011;53015;50.046;8.238;2023-08-20T13:03:15;6.97;;;2.92;;
66212;SDS011;53015;50.046;8.238;2023-08-20T13:05:41;3.70;;;2.58;;
66212;SDS011;53015;50.046;8.238;2023-08-20T13:08:07;5.50;;;2.90;;
66212;SDS011;53015;50.046;8.238;2023-08-20T13:10:34;4.60;;;3.13;;
66212;SDS011;53015;50.046;8.238;2023-08-20T13:13:00;3.22;;;2.40;;
66212;SDS011;53015;50.046;8.238;2023-08-20T13:15:27;6.18;;;3.40;;
66212;SDS011;53015;50.046;8.238;2023-08-20T13:17:54;6.60;;;3.30;;
66212;SDS011;53015;50.046;8.238;2023-08-20T13:20:20;5.80;;;3.45;;
66212;SDS011;53015;50.046;8.238;2023-08-20T13:22:46;4.45;;;2.72;;
66212;SDS011;53015;50.046;8.238;2023-08-20T13:25:11;4.32;;;2.45;;
66212;SDS011;53015;50.046;8.238;2023-08-20T13:27:37;2.95;;;2.65;;
66212;SDS011;53015;50.046;8.238;2023-08-20T13:30:02;4.90;;;3.10;;
66212;SDS011;53015;50.046;8.238;2023-08-20T13:32:28;4.28;;;2.88;;
66212;SDS011;53015;50.046;8.238;2023-08-20T13:34:55;4.05;;;2.65;;
66212;SDS011;53015;50.046;8.238;2023-08-20T13:37:21;3.90;;;2.83;;
66212;SDS011;53015;50.046;8.238;2023-08-20T13:39:46;3.50;;;2.90;;
66212;SDS011;53015;50.046;8.238;2023-08-20T13:42:12;6.32;;;3.00;;
66212;SDS011;53015;50.046;8.238;2023-08-20T13:44:37;5.70;;;3.33;;
66212;SDS011;53015;50.046;8.238;2023-08-20T13:47:03;6.03;;;3.05;;
66212;SDS011;53015;50.046;8.238;2023-08-20T13:49:29;7.35;;;3.42;;
66212;SDS011;53015;50.046;8.238;2023-08-20T13:51:56;7.25;;;3.10;;
66212;SDS011;53015;50.046;8.238;2023-08-20T13:54:21;7.28;;;3.00;;
66212;SDS011;53015;50.046;8.238;2023-08-20T13:56:46;4.45;;;2.95;;
66212;SDS011;53015;50.046;8.238;2023-08-20T13:59:12;14.93;;;3.55;;
66212;SDS011;53015;50.046;8.238;2023-08-20T14:01:38;6.28;;;2.65;;
66212;SDS011;53015;50.046;8.238;2023-08-20T14:04:03;5.70;;;2.75;;
66212;SDS011;53015;50.046;8.238;2023-08-20T14:06:29;5.25;;;2.90;;
66212;SDS011;53015;50.046;8.238;2023-08-20T14:08:56;3.40;;;2.53;;
66212;SDS011;53015;50.046;8.238;2023-08-20T14:11:21;6.10;;;2.53;;
66212;SDS011;53015;50.046;8.238;2023-08-20T14:13:47;7.88;;;2.88;;
66212;SDS011;53015;50.046;8.238;2023-08-20T14:16:12;5.38;;;2.88;;
66212;SDS011;53015;50.046;8.238;2023-08-20T14:18:38;4.20;;;2.72;;
66212;SDS011;53015;50.046;8.238;2023-08-20T14:21:04;3.08;;;2.72;;
66212;SDS011;53015;50.046;8.238;2023-08-20T14:23:29;5.75;;;2.80;;
66212;SDS011;53015;50.046;8.238;2023-08-20T14:25:56;4.68;;;2.88;;
66212;SDS011;53015;50.046;8.238;2023-08-20T14:28:21;3.38;;;2.60;;
66212;SDS011;53015;50.046;8.238;2023-08-20T14:30:47;3.10;;;2.65;;
66212;SDS011;53015;50.046;8.238;2023-08-20T14:33:13;6.88;;;2.53;;
66212;SDS011;53015;50.046;8.238;2023-08-20T14:35:39;5.20;;;2.70;;
66212;SDS011;53015;50.046;8.238;2023-08-20T14:38:04;7.00;;;2.95;;
66212;SDS011;53015;50.046;8.238;2023-08-20T14:40:30;5.78;;;2.70;;
66212;SDS011;53015;50.046;8.238;2023-08-20T14:42:57;9.70;;;3.00;;